sensor_id;sensor_type;location;lat;lon;timestamp;pressure;altitude;pressure_sealevel;temperature;humidity
8949;BME280;4509;51.522;9.910;2022-07-23T00:01:44;100062.50;;;17.25;100.00
8949;BME280;4509;51.522;9.910;2022-07-23T00:04:14;100068.00;;;17.31;100.00
8949;BME280;4509;51.522;9.910;2022-07-23T00:06:41;100066.75;;;17.36;100.00
8949;BME280;4509;51.522;9.910;2022-07-23T00:09:07;100075.00;;;17.33;100.00
8949;BME280;4509;51.522;9.910;2022-07-23T00:11:34;100072.63;;;17.29;100.00
8949;BME280;4509;51.522;9.910;2022-07-23T00:14:00;100064.53;;;17.31;100.00
8949;BME280;4509;51.522;9.910;2022-07-23T00:16:27;100056.03;;;17.27;100.00
8949;BME280;4509;51.522;9.910;2022-07-23T00:18:54;100053.16;;;17.21;100.00
8949;BME280;4509;51.522;9.910;2022-07-23T00:21:22;100051.63;;;17.18;100.00
8949;BME280;4509;51.522;9.910;2022-07-23T00:23:49;100055.38;;;17.25;100.00
8949;BME280;4509;51.522;9.910;2022-07-23T00:26:15;100061.72;;;17.33;100.00
8949;BME280;4509;51.522;9.910;2022-07-23T00:28:42;100065.28;;;17.23;100.00
8949;BME280;4509;51.522;9.910;2022-07-23T00:31:08;100064.19;;;17.16;100.00
8949;BME280;4509;51.522;9.910;2022-07-23T00:33:35;100058.34;;;17.13;100.00
8949;BME280;4509;51.522;9.910;2022-07-23T00:36:02;100053.31;;;17.10;100.00
8949;BME280;4509;51.522;9.910;2022-07-23T00:38:31;100036.91;;;17.06;100.00
8949;BME280;4509;51.522;9.910;2022-07-23T00:40:57;100041.47;;;17.14;100.00
8949;BME280;4509;51.522;9.910;2022-07-23T00:43:24;100038.28;;;17.10;100.00
8949;BME280;4509;51.522;9.910;2022-07-23T00:45:51;100038.88;;;17.04;100.00
8949;BME280;4509;51.522;9.910;2022-07-23T00:48:18;100041.53;;;17.04;100.00
8949;BME280;4509;51.522;9.910;2022-07-23T00:50:45;100047.50;;;17.06;100.00
8949;BME280;4509;51.522;9.910;2022-07-23T00:53:12;100038.47;;;16.99;100.00
8949;BME280;4509;51.522;9.910;2022-07-23T00:55:40;100040.78;;;17.12;98.11
8949;BME280;4509;51.522;9.910;2022-07-23T00:58:08;100038.31;;;17.01;100.00
8949;BME280;4509;51.522;9.910;2022-07-23T01:00:36;100036.09;;;16.96;100.00
8949;BME280;4509;51.522;9.910;2022-07-23T01:03:03;100038.41;;;16.81;100.00
8949;BME280;4509;51.522;9.910;2022-07-23T01:05:29;100025.31;;;16.80;100.00
8949;BME280;4509;51.522;9.910;2022-07-23T01:07:56;100023.19;;;16.83;100.00
8949;BME280;4509;51.522;9.910;2022-07-23T01:10:23;100022.66;;;16.80;100.00
8949;BME280;4509;51.522;9.910;2022-07-23T01:13:01;100027.66;;;16.83;100.00
8949;BME280;4509;51.522;9.910;2022-07-23T01:15:29;100025.31;;;16.80;100.00
8949;BME280;4509;51.522;9.910;2022-07-23T01:17:56;100025.59;;;16.77;100.00
8949;BME280;4509;51.522;9.910;2022-07-23T01:20:23;100033.09;;;16.81;100.00
8949;BME280;4509;51.522;9.910;2022-07-23T01:22:51;100045.06;;;16.85;100.00
8949;BME280;4509;51.522;9.910;2022-07-23T01:25:18;100047.44;;;16.88;100.00
8949;BME280;4509;51.522;9.910;2022-07-23T01:27:45;100027.38;;;16.86;100.00
8949;BME280;4509;51.522;9.910;2022-07-23T01:30:12;100026.13;;;16.80;100.00
8949;BME280;4509;51.522;9.910;2022-07-23T01:32:39;100019.72;;;16.73;100.00
8949;BME280;4509;51.522;9.910;2022-07-23T01:35:07;100007.19;;;16.75;100.00
8949;BME280;4509;51.522;9.910;2022-07-23T01:37:35;100004.94;;;16.80;100.00
8949;BME280;4509;51.522;9.910;2022-07-23T01:40:06;100005.38;;;16.76;100.00
8949;BME280;4509;51.522;9.910;2022-07-23T01:42:33;100013.31;;;16.76;100.00
8949;BME280;4509;51.522;9.910;2022-07-23T01:44:59;100005.66;;;16.73;100.00
8949;BME280;4509;51.522;9.910;2022-07-23T01:47:26;100018.75;;;16.74;100.00
8949;BME280;4509;51.522;9.910;2022-07-23T01:49:53;100021.25;;;16.76;100.00
8949;BME280;4509;51.522;9.910;2022-07-23T01:52:20;100018.91;;;16.73;100.00
8949;BME280;4509;51.522;9.910;2022-07-23T01:54:46;100020.63;;;16.64;100.00
8949;BME280;4509;51.522;9.910;2022-07-23T01:57:14;100011.00;;;16.63;100.00
8949;BME280;4509;51.522;9.910;2022-07-23T01:59:41;100007.91;;;16.58;100.00
8949;BME280;4509;51.522;9.910;2022-07-23T02:02:08;100013.91;;;16.60;100.00
8949;BME280;4509;51.522;9.910;2022-07-23T02:04:34;100018.63;;;16.76;100.00
8949;BME280;4509;51.522;9.910;2022-07-23T02:07:02;100016.84;;;16.67;100.00
8949;BME280;4509;51.522;9.910;2022-07-23T02:09:29;100013.34;;;16.56;100.00
8949;BME280;4509;51.522;9.910;2022-07-23T02:11:56;100019.75;;;16.54;100.00
8949;BME280;4509;51.522;9.910;2022-07-23T02:14:24;100044.97;;;16.58;100.00
8949;BME280;4509;51.522;9.910;2022-07-23T02:16:51;100052.06;;;16.57;100.00
8949;BME280;4509;51.522;9.910;2022-07-23T02:19:17;100044.28;;;16.56;100.00
8949;BME280;4509;51.522;9.910;2022-07-23T02:21:44;100017.25;;;16.62;100.00
8949;BME280;4509;51.522;9.910;2022-07-23T02:24:11;100004.19;;;16.51;100.00
8949;BME280;4509;51.522;9.910;2022-07-23T02:26:38;100007.69;;;16.42;100.00
8949;BME280;4509;51.522;9.910;2022-07-23T02:29:05;100009.63;;;16.40;100.00
8949;BME280;4509;51.522;9.910;2022-07-23T02:31:33;100043.31;;;16.38;100.00
8949;BME280;4509;51.522;9.910;2022-07-23T02:34:00;100055.03;;;16.35;100.00
8949;BME280;4509;51.522;9.910;2022-07-23T02:36:27;100033.31;;;16.41;100.00
8949;BME280;4509;51.522;9.910;2022-07-23T02:38:54;100021.59;;;16.44;100.00
8949;BME280;4509;51.522;9.910;2022-07-23T02:41:21;100010.59;;;16.48;100.00
8949;BME280;4509;51.522;9.910;2022-07-23T02:43:48;100023.97;;;16.47;100.00
8949;BME280;4509;51.522;9.910;2022-07-23T02:46:14;100029.25;;;16.47;100.00
8949;BME280;4509;51.522;9.910;2022-07-23T02:48:42;100038.59;;;16.51;100.00
8949;BME280;4509;51.522;9.910;2022-07-23T02:51:09;100042.63;;;16.45;100.00
8949;BME280;4509;51.522;9.910;2022-07-23T02:53:36;100045.13;;;16.37;100.00
8949;BME280;4509;51.522;9.910;2022-07-23T02:56:03;100038.63;;;16.32;100.00
8949;BME280;4509;51.522;9.910;2022-07-23T02:58:29;100036.81;;;16.32;100.00
8949;BME280;4509;51.522;9.910;2022-07-23T03:00:56;100031.78;;;16.29;100.00
8949;BME280;4509;51.522;9.910;2022-07-23T03:03:23;100036.25;;;16.28;100.00
8949;BME280;4509;51.522;9.910;2022-07-23T03:05:51;100042.09;;;16.22;100.00
8949;BME280;4509;51.522;9.910;2022-07-23T03:08:17;100050.88;;;16.23;100.00
8949;BME280;4509;51.522;9.910;2022-07-23T03:10:44;100063.97;;;16.24;100.00
8949;BME280;4509;51.522;9.910;2022-07-23T03:13:10;100057.53;;;16.17;100.00
8949;BME280;4509;51.522;9.910;2022-07-23T03:15:37;100054.38;;;16.14;100.00
8949;BME280;4509;51.522;9.910;2022-07-23T03:18:04;100044.91;;;16.11;100.00
8949;BME280;4509;51.522;9.910;2022-07-23T03:20:31;100051.41;;;16.17;100.00
8949;BME280;4509;51.522;9.910;2022-07-23T03:22:59;100055.75;;;16.18;100.00
8949;BME280;4509;51.522;9.910;2022-07-23T03:25:25;100050.72;;;16.24;100.00
8949;BME280;4509;51.522;9.910;2022-07-23T03:27:52;100050.47;;;16.27;100.00
8949;BME280;4509;51.522;9.910;2022-07-23T03:30:18;100024.41;;;16.33;100.00
8949;BME280;4509;51.522;9.910;2022-07-23T03:32:45;100025.22;;;16.33;100.00
8949;BME280;4509;51.522;9.910;2022-07-23T03:35:12;100034.59;;;16.27;100.00
8949;BME280;4509;51.522;9.910;2022-07-23T03:37:38;100034.84;;;16.24;100.00
8949;BME280;4509;51.522;9.910;2022-07-23T03:40:07;100045.44;;;16.24;100.00
8949;BME280;4509;51.522;9.910;2022-07-23T03:42:35;100032.34;;;16.23;100.00
8949;BME280;4509;51.522;9.910;2022-07-23T03:45:03;100031.94;;;16.27;100.00
8949;BME280;4509;51.522;9.910;2022-07-23T03:47:30;100030.53;;;16.23;100.00
8949;BME280;4509;51.522;9.910;2022-07-23T03:49:56;100035.56;;;16.26;100.00
8949;BME280;4509;51.522;9.910;2022-07-23T03:52:23;100038.19;;;16.26;100.00
8949;BME280;4509;51.522;9.910;2022-07-23T03:54:50;100045.56;;;16.23;100.00
8949;BME280;4509;51.522;9.910;2022-07-23T03:57:18;100042.38;;;16.19;100.00
8949;BME280;4509;51.522;9.910;2022-07-23T03:59:44;100048.78;;;16.26;100.00
8949;BME280;4509;51.522;9.910;2022-07-23T04:02:11;100038.75;;;16.30;100.00
8949;BME280;4509;51.522;9.910;2022-07-23T04:04:38;100037.34;;;16.36;100.00
8949;BME280;4509;51.522;9.910;2022-07-23T04:07:04;100029.53;;;16.34;100.00
8949;BME280;4509;51.522;9.910;2022-07-23T04:09:32;100030.00;;;16.30;100.00
8949;BME280;4509;51.522;9.910;2022-07-23T04:11:59;100015.78;;;16.31;100.00
8949;BME280;4509;51.522;9.910;2022-07-23T04:14:27;100019.28;;;16.31;100.00
8949;BME280;4509;51.522;9.910;2022-07-23T04:16:54;100017.84;;;16.37;100.00
8949;BME280;4509;51.522;9.910;2022-07-23T04:19:21;100018.28;;;16.32;100.00
8949;BME280;4509;51.522;9.910;2022-07-23T04:21:47;100022.31;;;16.36;100.00
8949;BME280;4509;51.522;9.910;2022-07-23T04:24:14;100033.16;;;16.33;100.00
8949;BME280;4509;51.522;9.910;2022-07-23T04:26:40;100029.13;;;16.39;100.00
8949;BME280;4509;51.522;9.910;2022-07-23T04:29:07;100029.81;;;16.41;100.00
8949;BME280;4509;51.522;9.910;2022-07-23T04:31:36;100029.53;;;16.44;100.00
8949;BME280;4509;51.522;9.910;2022-07-23T04:34:02;100038.59;;;16.51;100.00
8949;BME280;4509;51.522;9.910;2022-07-23T04:36:29;100041.53;;;16.48;100.00
8949;BME280;4509;51.522;9.910;2022-07-23T04:38:57;100047.66;;;16.48;100.00
8949;BME280;4509;51.522;9.910;2022-07-23T04:41:23;100055.44;;;16.40;100.00
8949;BME280;4509;51.522;9.910;2022-07-23T04:43:50;100063.66;;;16.37;100.00
8949;BME280;4509;51.522;9.910;2022-07-23T04:46:17;100051.53;;;16.35;100.00
8949;BME280;4509;51.522;9.910;2022-07-23T04:48:45;100063.94;;;16.44;100.00
8949;BME280;4509;51.522;9.910;2022-07-23T04:51:12;100058.50;;;16.45;100.00
8949;BME280;4509;51.522;9.910;2022-07-23T04:53:39;100055.59;;;16.48;100.00
8949;BME280;4509;51.522;9.910;2022-07-23T04:56:06;100056.28;;;16.50;100.00
8949;BME280;4509;51.522;9.910;2022-07-23T04:58:33;100060.72;;;16.59;100.00
8949;BME280;4509;51.522;9.910;2022-07-23T05:00:59;100056.69;;;16.65;100.00
8949;BME280;4509;51.522;9.910;2022-07-23T05:03:27;100044.53;;;16.72;100.00
8949;BME280;4509;51.522;9.910;2022-07-23T05:05:55;100043.84;;;16.70;100.00
8949;BME280;4509;51.522;9.910;2022-07-23T05:08:21;100041.19;;;16.70;100.00
8949;BME280;4509;51.522;9.910;2022-07-23T05:10:48;100017.13;;;16.64;100.00
8949;BME280;4509;51.522;9.910;2022-07-23T05:13:15;100013.59;;;16.73;100.00
8949;BME280;4509;51.522;9.910;2022-07-23T05:15:42;100015.03;;;16.67;100.00
8949;BME280;4509;51.522;9.910;2022-07-23T05:18:09;100010.53;;;16.77;100.00
8949;BME280;4509;51.522;9.910;2022-07-23T05:20:36;100011.78;;;16.83;100.00
8949;BME280;4509;51.522;9.910;2022-07-23T05:23:04;100011.34;;;16.87;100.00
8949;BME280;4509;51.522;9.910;2022-07-23T05:25:31;100025.81;;;16.93;100.00
8949;BME280;4509;51.522;9.910;2022-07-23T05:27:57;100022.28;;;17.02;100.00
8949;BME280;4509;51.522;9.910;2022-07-23T05:30:24;100022.94;;;17.14;100.00
8949;BME280;4509;51.522;9.910;2022-07-23T05:32:51;100030.28;;;17.20;100.00
8949;BME280;4509;51.522;9.910;2022-07-23T05:35:18;100027.50;;;17.21;100.00
8949;BME280;4509;51.522;9.910;2022-07-23T05:37:45;100023.94;;;17.30;100.00
8949;BME280;4509;51.522;9.910;2022-07-23T05:40:13;100020.38;;;17.22;100.00
8949;BME280;4509;51.522;9.910;2022-07-23T05:42:40;100021.84;;;17.34;100.00
8949;BME280;4509;51.522;9.910;2022-07-23T05:45:08;100026.84;;;17.37;100.00
8949;BME280;4509;51.522;9.910;2022-07-23T05:47:40;100028.22;;;17.41;100.00
8949;BME280;4509;51.522;9.910;2022-07-23T05:50:07;100035.63;;;17.38;100.00
8949;BME280;4509;51.522;9.910;2022-07-23T05:52:34;100039.41;;;17.35;100.00
8949;BME280;4509;51.522;9.910;2022-07-23T05:55:00;100043.59;;;17.38;100.00
8949;BME280;4509;51.522;9.910;2022-07-23T05:57:28;100040.78;;;17.39;100.00
8949;BME280;4509;51.522;9.910;2022-07-23T05:59:55;100049.78;;;17.46;100.00
8949;BME280;4509;51.522;9.910;2022-07-23T06:02:22;100048.28;;;17.71;100.00
8949;BME280;4509;51.522;9.910;2022-07-23T06:04:48;100049.72;;;17.83;100.00
8949;BME280;4509;51.522;9.910;2022-07-23T06:07:15;100054.53;;;17.97;100.00
8949;BME280;4509;51.522;9.910;2022-07-23T06:09:42;100048.69;;;17.94;100.00
8949;BME280;4509;51.522;9.910;2022-07-23T06:12:08;100060.28;;;17.93;100.00
8949;BME280;4509;51.522;9.910;2022-07-23T06:14:36;100059.50;;;17.83;100.00
8949;BME280;4509;51.522;9.910;2022-07-23T06:17:03;100058.75;;;17.90;100.00
8949;BME280;4509;51.522;9.910;2022-07-23T06:19:30;100056.25;;;17.89;100.00
8949;BME280;4509;51.522;9.910;2022-07-23T06:21:56;100060.44;;;17.91;100.00
8949;BME280;4509;51.522;9.910;2022-07-23T06:24:23;100054.69;;;18.14;100.00
8949;BME280;4509;51.522;9.910;2022-07-23T06:26:50;100046.56;;;18.33;100.00
8949;BME280;4509;51.522;9.910;2022-07-23T06:29:16;100047.97;;;18.45;100.00
8949;BME280;4509;51.522;9.910;2022-07-23T06:31:44;100058.72;;;18.61;100.00
8949;BME280;4509;51.522;9.910;2022-07-23T06:34:11;100054.84;;;18.74;100.00
8949;BME280;4509;51.522;9.910;2022-07-23T06:36:38;100049.94;;;18.87;100.00
8949;BME280;4509;51.522;9.910;2022-07-23T06:39:04;100057.47;;;18.99;100.00
8949;BME280;4509;51.522;9.910;2022-07-23T06:41:31;100054.41;;;18.86;100.00
8949;BME280;4509;51.522;9.910;2022-07-23T06:43:58;100058.16;;;18.76;100.00
8949;BME280;4509;51.522;9.910;2022-07-23T06:46:24;100055.31;;;18.69;100.00
8949;BME280;4509;51.522;9.910;2022-07-23T06:48:52;100058.50;;;18.55;100.00
8949;BME280;4509;51.522;9.910;2022-07-23T06:51:19;100055.91;;;18.63;100.00
8949;BME280;4509;51.522;9.910;2022-07-23T06:53:46;100055.97;;;18.71;100.00
8949;BME280;4509;51.522;9.910;2022-07-23T06:56:13;100067.59;;;18.70;100.00
8949;BME280;4509;51.522;9.910;2022-07-23T06:58:39;100066.09;;;18.76;100.00
8949;BME280;4509;51.522;9.910;2022-07-23T07:01:06;100061.78;;;18.75;100.00
8949;BME280;4509;51.522;9.910;2022-07-23T07:03:33;100071.28;;;18.77;100.00
8949;BME280;4509;51.522;9.910;2022-07-23T07:06:01;100065.50;;;18.82;100.00
8949;BME280;4509;51.522;9.910;2022-07-23T07:08:27;100072.38;;;18.92;100.00
8949;BME280;4509;51.522;9.910;2022-07-23T07:10:54;100073.47;;;19.16;100.00
8949;BME280;4509;51.522;9.910;2022-07-23T07:13:21;100070.03;;;19.23;100.00
8949;BME280;4509;51.522;9.910;2022-07-23T07:15:48;100076.72;;;19.69;100.00
8949;BME280;4509;51.522;9.910;2022-07-23T07:18:14;100090.34;;;19.66;100.00
8949;BME280;4509;51.522;9.910;2022-07-23T07:20:41;100093.50;;;19.70;100.00
8949;BME280;4509;51.522;9.910;2022-07-23T07:23:09;100100.09;;;20.16;100.00
8949;BME280;4509;51.522;9.910;2022-07-23T07:25:36;100095.31;;;20.52;100.00
8949;BME280;4509;51.522;9.910;2022-07-23T07:28:03;100094.81;;;20.65;100.00
8949;BME280;4509;51.522;9.910;2022-07-23T07:30:29;100099.13;;;20.66;100.00
8949;BME280;4509;51.522;9.910;2022-07-23T07:32:56;100110.31;;;20.53;100.00
8949;BME280;4509;51.522;9.910;2022-07-23T07:35:24;100122.59;;;20.46;100.00
8949;BME280;4509;51.522;9.910;2022-07-23T07:37:50;100122.13;;;20.75;100.00
8949;BME280;4509;51.522;9.910;2022-07-23T07:40:19;100118.22;;;21.02;100.00
8949;BME280;4509;51.522;9.910;2022-07-23T07:42:46;100117.03;;;21.21;100.00
8949;BME280;4509;51.522;9.910;2022-07-23T07:45:12;100116.31;;;21.35;93.78
8949;BME280;4509;51.522;9.910;2022-07-23T07:47:40;100118.97;;;21.43;98.56
8949;BME280;4509;51.522;9.910;2022-07-23T07:50:08;100116.16;;;21.36;98.59
8949;BME280;4509;51.522;9.910;2022-07-23T07:52:34;100122.63;;;21.50;91.94
8949;BME280;4509;51.522;9.910;2022-07-23T07:55:02;100124.50;;;21.72;95.08
8949;BME280;4509;51.522;9.910;2022-07-23T07:57:31;100126.44;;;22.26;91.25
8949;BME280;4509;51.522;9.910;2022-07-23T07:59:57;100127.19;;;22.34;91.06
8949;BME280;4509;51.522;9.910;2022-07-23T08:02:24;100127.47;;;22.62;93.64
8949;BME280;4509;51.522;9.910;2022-07-23T08:04:51;100129.41;;;22.45;88.73
8949;BME280;4509;51.522;9.910;2022-07-23T08:07:18;100134.16;;;22.13;91.45
8949;BME280;4509;51.522;9.910;2022-07-23T08:09:45;100124.03;;;22.08;90.68
8949;BME280;4509;51.522;9.910;2022-07-23T08:12:11;100131.84;;;21.78;95.72
8949;BME280;4509;51.522;9.910;2022-07-23T08:14:39;100131.00;;;21.78;96.65
8949;BME280;4509;51.522;9.910;2022-07-23T08:17:06;100130.81;;;21.49;97.37
8949;BME280;4509;51.522;9.910;2022-07-23T08:19:33;100133.38;;;21.26;100.00
8949;BME280;4509;51.522;9.910;2022-07-23T08:21:59;100132.00;;;21.38;99.97
8949;BME280;4509;51.522;9.910;2022-07-23T08:24:26;100137.94;;;21.56;95.81
8949;BME280;4509;51.522;9.910;2022-07-23T08:26:53;100135.06;;;21.97;93.16
8949;BME280;4509;51.522;9.910;2022-07-23T08:29:19;100129.13;;;22.18;92.44
8949;BME280;4509;51.522;9.910;2022-07-23T08:31:47;100134.38;;;22.34;83.80
8949;BME280;4509;51.522;9.910;2022-07-23T08:34:14;100140.94;;;22.69;85.88
8949;BME280;4509;51.522;9.910;2022-07-23T08:36:41;100142.94;;;22.67;79.96
8949;BME280;4509;51.522;9.910;2022-07-23T08:39:07;100142.22;;;22.81;85.10
8949;BME280;4509;51.522;9.910;2022-07-23T08:41:34;100142.06;;;23.12;79.83
8949;BME280;4509;51.522;9.910;2022-07-23T08:44:01;100139.75;;;23.24;76.95
8949;BME280;4509;51.522;9.910;2022-07-23T08:46:28;100147.50;;;23.77;73.58
8949;BME280;4509;51.522;9.910;2022-07-23T08:48:57;100146.53;;;24.00;78.39
8949;BME280;4509;51.522;9.910;2022-07-23T08:51:26;100148.28;;;23.71;80.55
8949;BME280;4509;51.522;9.910;2022-07-23T08:53:56;100154.28;;;23.73;77.44
8949;BME280;4509;51.522;9.910;2022-07-23T08:56:23;100150.56;;;23.60;79.61
8949;BME280;4509;51.522;9.910;2022-07-23T08:58:53;100148.72;;;23.45;83.17
8949;BME280;4509;51.522;9.910;2022-07-23T09:01:20;100145.03;;;23.17;82.55
8949;BME280;4509;51.522;9.910;2022-07-23T09:03:46;100149.38;;;23.62;80.08
8949;BME280;4509;51.522;9.910;2022-07-23T09:06:14;100147.03;;;23.89;79.34
8949;BME280;4509;51.522;9.910;2022-07-23T09:08:43;100150.59;;;23.96;79.41
8949;BME280;4509;51.522;9.910;2022-07-23T09:11:11;100151.75;;;23.87;79.78
8949;BME280;4509;51.522;9.910;2022-07-23T09:13:40;100147.81;;;23.68;78.35
8949;BME280;4509;51.522;9.910;2022-07-23T09:16:09;100148.34;;;23.34;77.63
8949;BME280;4509;51.522;9.910;2022-07-23T09:18:41;100150.84;;;23.50;84.69
8949;BME280;4509;51.522;9.910;2022-07-23T09:21:16;100146.22;;;23.59;80.40
8949;BME280;4509;51.522;9.910;2022-07-23T09:23:45;100144.19;;;23.75;78.08
8949;BME280;4509;51.522;9.910;2022-07-23T09:26:34;100138.47;;;24.29;71.25
8949;BME280;4509;51.522;9.910;2022-07-23T09:29:07;100146.53;;;24.57;77.08
8949;BME280;4509;51.522;9.910;2022-07-23T09:31:43;100148.00;;;24.38;74.86
8949;BME280;4509;51.522;9.910;2022-07-23T09:34:13;100144.38;;;24.25;78.01
8949;BME280;4509;51.522;9.910;2022-07-23T09:36:41;100154.47;;;24.08;72.71
8949;BME280;4509;51.522;9.910;2022-07-23T09:39:11;100148.19;;;24.01;78.45
8949;BME280;4509;51.522;9.910;2022-07-23T09:41:43;100151.84;;;23.93;78.34
8949;BME280;4509;51.522;9.910;2022-07-23T09:44:12;100150.22;;;23.99;73.32
8949;BME280;4509;51.522;9.910;2022-07-23T09:46:39;100150.63;;;24.32;79.69
8949;BME280;4509;51.522;9.910;2022-07-23T09:49:12;100137.91;;;24.83;73.82
8949;BME280;4509;51.522;9.910;2022-07-23T09:51:49;100144.03;;;24.98;75.12
8949;BME280;4509;51.522;9.910;2022-07-23T09:54:26;100160.69;;;24.51;71.37
8949;BME280;4509;51.522;9.910;2022-07-23T09:56:55;100155.56;;;24.28;74.11
8949;BME280;4509;51.522;9.910;2022-07-23T09:59:24;100153.63;;;24.43;74.52
8949;BME280;4509;51.522;9.910;2022-07-23T10:01:53;100148.75;;;24.75;69.33
8949;BME280;4509;51.522;9.910;2022-07-23T10:04:22;100147.13;;;25.30;69.24
8949;BME280;4509;51.522;9.910;2022-07-23T10:06:52;100152.50;;;25.64;66.35
8949;BME280;4509;51.522;9.910;2022-07-23T10:09:24;100145.88;;;26.21;68.72
8949;BME280;4509;51.522;9.910;2022-07-23T10:11:56;100141.09;;;26.16;60.28
8949;BME280;4509;51.522;9.910;2022-07-23T10:14:38;100148.06;;;26.52;60.76
8949;BME280;4509;51.522;9.910;2022-07-23T10:17:06;100141.41;;;26.41;67.12
8949;BME280;4509;51.522;9.910;2022-07-23T10:19:35;100138.94;;;26.60;63.78
8949;BME280;4509;51.522;9.910;2022-07-23T10:22:06;100143.72;;;26.84;59.68
8949;BME280;4509;51.522;9.910;2022-07-23T10:24:52;100143.88;;;26.56;63.59
8949;BME280;4509;51.522;9.910;2022-07-23T10:27:43;100136.16;;;26.20;64.63
8949;BME280;4509;51.522;9.910;2022-07-23T10:30:18;100133.88;;;26.17;60.90
8949;BME280;4509;51.522;9.910;2022-07-23T10:32:54;100140.78;;;26.46;66.44
8949;BME280;4509;51.522;9.910;2022-07-23T10:35:28;100134.19;;;26.48;57.89
8949;BME280;4509;51.522;9.910;2022-07-23T10:38:05;100138.31;;;26.64;57.41
8949;BME280;4509;51.522;9.910;2022-07-23T10:40:34;100142.44;;;26.73;58.86
8949;BME280;4509;51.522;9.910;2022-07-23T10:43:04;100143.50;;;26.52;60.79
8949;BME280;4509;51.522;9.910;2022-07-23T10:45:39;100137.91;;;27.20;58.69
8949;BME280;4509;51.522;9.910;2022-07-23T10:48:14;100129.19;;;27.24;53.30
8949;BME280;4509;51.522;9.910;2022-07-23T10:50:42;100134.50;;;27.51;56.21
8949;BME280;4509;51.522;9.910;2022-07-23T10:53:16;100134.50;;;27.57;60.50
8949;BME280;4509;51.522;9.910;2022-07-23T10:55:48;100138.66;;;27.60;52.87
8949;BME280;4509;51.522;9.910;2022-07-23T10:58:21;100142.94;;;27.74;52.26
8949;BME280;4509;51.522;9.910;2022-07-23T11:00:49;100145.06;;;27.59;55.67
8949;BME280;4509;51.522;9.910;2022-07-23T11:03:32;100139.75;;;27.19;51.96
8949;BME280;4509;51.522;9.910;2022-07-23T11:06:02;100149.84;;;27.57;55.65
8949;BME280;4509;51.522;9.910;2022-07-23T11:08:30;100140.75;;;27.45;54.35
8949;BME280;4509;51.522;9.910;2022-07-23T11:11:12;100143.09;;;27.86;54.48
8949;BME280;4509;51.522;9.910;2022-07-23T11:13:47;100143.63;;;27.63;51.18
8949;BME280;4509;51.522;9.910;2022-07-23T11:16:19;100140.50;;;27.53;52.72
8949;BME280;4509;51.522;9.910;2022-07-23T11:19:08;100126.84;;;27.61;51.99
8949;BME280;4509;51.522;9.910;2022-07-23T11:21:50;100127.00;;;27.66;53.34
8949;BME280;4509;51.522;9.910;2022-07-23T11:24:24;100129.63;;;28.24;54.75
8949;BME280;4509;51.522;9.910;2022-07-23T11:27:02;100130.75;;;28.98;55.37
8949;BME280;4509;51.522;9.910;2022-07-23T11:29:44;100139.06;;;28.71;49.23
8949;BME280;4509;51.522;9.910;2022-07-23T11:32:34;100129.69;;;28.49;45.40
8949;BME280;4509;51.522;9.910;2022-07-23T11:35:18;100139.00;;;28.53;54.26
8949;BME280;4509;51.522;9.910;2022-07-23T11:38:03;100132.63;;;28.72;51.58
8949;BME280;4509;51.522;9.910;2022-07-23T11:40:32;100125.47;;;28.84;52.97
8949;BME280;4509;51.522;9.910;2022-07-23T11:43:02;100129.66;;;29.23;56.23
8949;BME280;4509;51.522;9.910;2022-07-23T11:45:32;100128.41;;;29.26;47.61
8949;BME280;4509;51.522;9.910;2022-07-23T11:47:59;100121.13;;;29.81;50.70
8949;BME280;4509;51.522;9.910;2022-07-23T11:50:26;100124.44;;;30.13;48.01
8949;BME280;4509;51.522;9.910;2022-07-23T11:52:54;100127.59;;;29.92;46.84
8949;BME280;4509;51.522;9.910;2022-07-23T11:55:21;100126.66;;;29.86;50.74
8949;BME280;4509;51.522;9.910;2022-07-23T11:57:51;100119.09;;;29.22;46.11
8949;BME280;4509;51.522;9.910;2022-07-23T12:00:22;100120.75;;;28.48;47.94
8949;BME280;4509;51.522;9.910;2022-07-23T12:02:55;100125.94;;;29.00;49.75
8949;BME280;4509;51.522;9.910;2022-07-23T12:05:27;100117.16;;;29.29;49.09
8949;BME280;4509;51.522;9.910;2022-07-23T12:07:56;100124.44;;;29.65;50.59
8949;BME280;4509;51.522;9.910;2022-07-23T12:10:25;100120.50;;;29.79;49.83
8949;BME280;4509;51.522;9.910;2022-07-23T12:13:04;100122.19;;;29.44;44.95
8949;BME280;4509;51.522;9.910;2022-07-23T12:15:34;100122.59;;;29.47;47.55
8949;BME280;4509;51.522;9.910;2022-07-23T12:18:05;100108.13;;;28.74;45.63
8949;BME280;4509;51.522;9.910;2022-07-23T12:20:44;100117.78;;;29.06;47.78
8949;BME280;4509;51.522;9.910;2022-07-23T12:23:26;100114.50;;;29.22;47.34
8949;BME280;4509;51.522;9.910;2022-07-23T12:26:03;100113.25;;;29.25;47.20
8949;BME280;4509;51.522;9.910;2022-07-23T12:29:16;100111.38;;;28.57;47.27
8949;BME280;4509;51.522;9.910;2022-07-23T12:31:29;100101.91;;;29.16;49.57
8949;BME280;4509;51.522;9.910;2022-07-23T12:37:28;100112.22;;;29.62;46.75
8949;BME280;4509;51.522;9.910;2022-07-23T12:40:26;100119.72;;;30.09;46.38
8949;BME280;4509;51.522;9.910;2022-07-23T12:42:57;100110.63;;;30.45;48.73
8949;BME280;4509;51.522;9.910;2022-07-23T12:48:14;100112.03;;;30.36;43.42
8949;BME280;4509;51.522;9.910;2022-07-23T12:50:44;100113.22;;;30.40;44.14
8949;BME280;4509;51.522;9.910;2022-07-23T12:53:30;100106.59;;;30.77;42.41
8949;BME280;4509;51.522;9.910;2022-07-23T12:56:04;100114.75;;;30.47;42.26
8949;BME280;4509;51.522;9.910;2022-07-23T12:58:46;100115.66;;;30.29;44.81
8949;BME280;4509;51.522;9.910;2022-07-23T13:01:30;100104.09;;;29.92;45.50
8949;BME280;4509;51.522;9.910;2022-07-23T13:04:03;100107.19;;;30.26;43.94
8949;BME280;4509;51.522;9.910;2022-07-23T13:06:46;100118.06;;;30.08;42.65
8949;BME280;4509;51.522;9.910;2022-07-23T13:09:18;100115.22;;;30.44;43.88
8949;BME280;4509;51.522;9.910;2022-07-23T13:11:46;100116.53;;;30.53;41.75
8949;BME280;4509;51.522;9.910;2022-07-23T13:14:14;100119.06;;;30.55;42.00
8949;BME280;4509;51.522;9.910;2022-07-23T13:16:51;100108.22;;;31.02;41.34
8949;BME280;4509;51.522;9.910;2022-07-23T13:19:22;100107.31;;;31.31;43.74
8949;BME280;4509;51.522;9.910;2022-07-23T13:21:48;100110.97;;;31.25;39.55